New Harbor, ME

43° 52' 34"N, 69° 29' 40"W, Elevation 65 ft.
Eastern Time

Hourly observations for the last 72 hours

Date Time Temperature (°F) Humi-
dity

(%)
Wind
(mph)
Pressure Rain (in) Sun
(W/m2)
ET
(in)
Air Dew 6 Hour 1 Hr 3 Hr 6 Hr Day
Alt
(in)
Sea
Level

(mb)
Max Min
25 02:00 45.2 43.9 54.2 44.2 95 WNW 2 G 4 30.05 1017.5 0.00 0 0.000
25 01:00 44.8 43.2 94 NW 0 G 3 30.05 1017.7 0.00 0 0.000
25 00:00 44.2 42.6 94 Calm 30.06 1017.9 0.08 0 0.051
24 23:00 45.5 43.6 93 NW 0 G 3 30.05 1017.6 0.08 0 0.051
24 22:00 46.6 44.7 93 WNW 0 G 2 30.05 1017.5 0.08 0 0.051
24 21:00 48.5 45.4 89 N 0 G 1 30.03 1016.9 0.08 0 0.051
24 20:00 54.2 47.2 58.0 54.2 77 NNE 1 G 4 30.00 1016.0 0.08 5 0.050
24 19:00 56.6 48.1 73 NNE 4 G 9 29.99 1015.7 0.08 44 0.049
24 18:00 56.9 48.0 72 NE 2 G 12 29.96 1014.5 0.08 23 0.046
24 17:00 57.2 49.0 74 NE 9 G 16 29.90 1012.7 0.08 37 0.043
24 16:00 56.6 48.8 75 NE 7 G 14 29.86 1011.3 0.08 69 0.037
24 15:00 55.7 49.0 78 NE 10 G 24 29.83 1010.3 0.08 255 0.030
24 14:00 55.9 49.1 57.9 50.2 78 NNE 9 G 20 29.78 1008.5 0.08 211 0.022
24 13:00 55.2 50.1 83 NNE 8 G 17 29.74 1007.2 0.08 513 0.014
24 12:00 52.0 49.2 90 NNE 8 G 20 29.70 1005.9 0.08 308 0.010
24 11:00 50.8 47.7 89 N 9 G 18 29.66 1004.4 0.08 148 0.007
24 10:00 50.6 49.2 95 NNE 3 G 16 29.61 1002.7 0.08 86 0.004
24 09:00 52.1 51.3 97 NNW 3 G 11 29.57 1001.4 0.08 77 0.002
24 08:00 53.1 52.3 53.1 50.5 97 NNW 4 G 6 29.54 1000.5 0.08 128 0.001
24 07:00 51.9 51.1 97 Calm 29.52 999.6 0.08 63 0.000
24 06:00 52.0 51.2 97 Calm 29.52 999.7 0.08 18 0.000
24 05:00 51.7 50.9 97 Calm 29.51 999.4 0.08 0 0.000
24 04:00 51.5 50.7 97 W 1 G 4 29.53 1000.1 0.08 0 0.000
24 03:00 51.4 50.3 96 WSW 2 G 7 29.55 1000.7 0.08 0 0.000
24 02:00 50.5 49.4 51.5 49.0 96 WSW 2 G 5 29.60 1002.3 0.01 0.19 0.24 0.08 0 0.000
24 01:00 50.8 49.7 96 NNW 1 G 11 29.62 1003.0 0.07 0.07 0 0.000
24 00:00 50.2 48.8 95 S 5 G 11 29.71 1006.0 0.11 0.16 0 0.099
23 23:00 49.5 47.8 94 S 7 G 16 29.73 1006.8 0.01 0.05 0.05 0 0.099
23 22:00 49.8 47.9 93 SSE 8 G 15 29.78 1008.7 0.04 0.04 0 0.099
23 21:00 50.2 48.0 92 S 8 G 16 29.83 1010.1 0.00 0 0.099
23 20:00 50.4 47.9 56.8 50.3 91 S 4 G 8 29.84 1010.6 0.00 0 0.099
23 19:00 52.0 48.3 87 SSE 1 G 4 29.89 1012.4 0.00 14 0.098
23 18:00 51.7 47.7 86 S 3 G 7 29.93 1013.6 0.00 58 0.096
23 17:00 53.1 48.1 83 SSE 2 G 6 29.97 1015.0 0.00 90 0.093
23 16:00 54.6 48.2 79 S 6 G 9 30.01 1016.4 0.00 183 0.088
23 15:00 54.5 47.8 78 SSE 5 G 11 30.03 1017.1 0.00 230 0.079
23 14:00 54.9 48.5 60.3 50.0 79 SSE 4 G 9 30.04 1017.2 0.00 427 0.070
23 13:00 56.8 48.2 73 SSE 5 G 13 30.08 1018.8 0.00 457 0.056
23 12:00 56.1 48.6 76 SSE 7 G 15 30.11 1019.7 0.00 606 0.040
23 11:00 58.1 47.2 67 SSE 6 G 10 30.13 1020.3 0.00 679 0.023
23 10:00 59.5 45.6 60 WSW 4 G 14 30.16 1021.4 0.00 749 0.011
23 09:00 52.8 47.1 81 SE 2 G 4 30.17 1021.6 0.00 281 0.006
23 08:00 50.0 46.3 50.0 44.3 87 Calm 30.18 1022.1 0.00 144 0.004
23 07:00 49.2 45.8 88 Calm 30.20 1022.6 0.00 107 0.003
23 06:00 48.5 44.8 87 SW 1 G 4 30.19 1022.4 0.00 12 0.003
23 05:00 47.1 43.1 86 Calm 30.18 1022.2 0.00 0 0.003
23 04:00 46.1 42.4 87 Calm 30.18 1022.1 0.00 0 0.003
23 03:00 44.5 40.0 84 W 0 G 4 30.21 1023.1 0.00 0 0.002
23 02:00 47.0 40.2 51.5 44.8 77 W 4 G 7 30.21 1023.1 0.00 0 0.001
23 01:00 45.0 40.5 84 WSW 2 G 7 30.21 1023.0 0.00 0 0.000
23 00:00 47.1 39.9 76 W 3 G 7 30.20 1022.9 0.00 0 0.184
22 23:00 47.2 40.0 76 W 3 G 6 30.21 1023.0 0.00 0 0.183
22 22:00 48.0 40.8 76 W 3 G 8 30.20 1022.8 0.00 0 0.182
22 21:00 49.5 41.6 74 WSW 4 G 9 30.20 1022.8 0.00 0 0.181
22 20:00 51.3 41.5 67.1 51.2 69 SW 4 G 10 30.20 1022.7 0.00 5 0.180
22 19:00 54.3 42.8 65 SW 3 G 11 30.19 1022.4 0.00 51 0.177
22 18:00 58.3 40.3 51 S 5 G 9 30.16 1021.5 0.00 116 0.171
22 17:00 61.4 42.1 49 SSE 2 G 9 30.17 1021.6 0.00 424 0.160
22 16:00 66.8 43.6 43 NW 3 G 14 30.15 1020.9 0.00 322 0.142
22 15:00 63.5 40.6 43 NNE 6 G 15 30.13 1020.5 0.00 770 0.125
22 14:00 63.6 40.7 64.6 52.0 43 NE 10 G 14 30.13 1020.3 0.00 990 0.103
22 13:00 63.6 41.9 45 NW 4 G 12 30.12 1020.1 0.00 1164 0.086
22 12:00 62.2 43.9 51 NNW 5 G 16 30.12 1020.0 0.00 969 0.066
22 11:00 58.5 39.4 49 NNE 10 G 19 30.10 1019.4 0.00 675 0.047
22 10:00 56.8 40.3 54 N 6 G 19 30.09 1019.1 0.00 802 0.032
22 09:00 53.2 38.8 58 N 8 G 17 30.08 1018.8 0.00 503 0.022
22 08:00 52.0 38.6 52.0 46.5 60 N 4 G 16 30.05 1017.8 0.00 450 0.014
22 07:00 49.4 38.1 65 NNW 7 G 19 30.05 1017.6 0.00 246 0.011
22 06:00 46.9 36.9 68 N 6 G 17 30.02 1016.6 0.00 25 0.009
22 05:00 46.9 36.5 67 N 5 G 18 29.99 1015.5 0.00 0 0.007
22 04:00 48.0 38.7 70 N 4 G 15 29.95 1014.2 0.00 0 0.006
22 03:00 48.7 39.4 70 NNW 4 G 12 29.92 1013.1 0.00 0 0.004

Data generated by WxSolution Version 1.9.1.5, Build 2018.05.20.